sensor_id;sensor_type;location;lat;lon;timestamp;pressure;altitude;pressure_sealevel;temperature;humidity
37878;BME280;23715;53.652;8.516;2023-04-19T00:03:02;103321.41;;;7.91;100.00
37878;BME280;23715;53.652;8.516;2023-04-19T00:08:09;103308.66;;;7.86;100.00
37878;BME280;23715;53.652;8.516;2023-04-19T00:13:06;103307.22;;;8.00;100.00
37878;BME280;23715;53.652;8.516;2023-04-19T00:18:06;103307.13;;;7.78;100.00
37878;BME280;23715;53.652;8.516;2023-04-19T00:23:06;103316.20;;;7.74;100.00
37878;BME280;23715;53.652;8.516;2023-04-19T00:28:07;103311.28;;;7.74;100.00
37878;BME280;23715;53.652;8.516;2023-04-19T00:33:07;103305.84;;;7.63;100.00
37878;BME280;23715;53.652;8.516;2023-04-19T00:38:12;103305.33;;;7.52;100.00
37878;BME280;23715;53.652;8.516;2023-04-19T00:43:15;103304.72;;;7.44;100.00
37878;BME280;23715;53.652;8.516;2023-04-19T00:48:13;103302.09;;;7.29;100.00
37878;BME280;23715;53.652;8.516;2023-04-19T00:53:17;103294.78;;;7.21;100.00
37878;BME280;23715;53.652;8.516;2023-04-19T00:58:17;103296.20;;;7.18;100.00
37878;BME280;23715;53.652;8.516;2023-04-19T01:03:19;103298.09;;;7.14;100.00
37878;BME280;23715;53.652;8.516;2023-04-19T01:08:22;103298.61;;;7.12;100.00
37878;BME280;23715;53.652;8.516;2023-04-19T01:13:24;103295.48;;;7.26;100.00
37878;BME280;23715;53.652;8.516;2023-04-19T01:18:26;103295.11;;;7.10;100.00
37878;BME280;23715;53.652;8.516;2023-04-19T01:23:27;103292.38;;;6.98;100.00
37878;BME280;23715;53.652;8.516;2023-04-19T01:28:28;103292.62;;;6.91;100.00
37878;BME280;23715;53.652;8.516;2023-04-19T01:33:28;103291.08;;;6.97;100.00
37878;BME280;23715;53.652;8.516;2023-04-19T01:38:28;103295.53;;;6.83;100.00
37878;BME280;23715;53.652;8.516;2023-04-19T01:43:29;103294.88;;;6.75;100.00
37878;BME280;23715;53.652;8.516;2023-04-19T01:48:28;103292.23;;;6.73;100.00
37878;BME280;23715;53.652;8.516;2023-04-19T01:53:28;103296.67;;;7.17;100.00
37878;BME280;23715;53.652;8.516;2023-04-19T01:58:29;103288.70;;;7.29;100.00
37878;BME280;23715;53.652;8.516;2023-04-19T02:03:31;103284.34;;;7.40;100.00
37878;BME280;23715;53.652;8.516;2023-04-19T02:08:32;103277.69;;;7.38;100.00
37878;BME280;23715;53.652;8.516;2023-04-19T02:13:32;103268.61;;;7.56;100.00
37878;BME280;23715;53.652;8.516;2023-04-19T02:18:33;103272.84;;;7.50;100.00
37878;BME280;23715;53.652;8.516;2023-04-19T02:23:38;103275.58;;;7.48;100.00
37878;BME280;23715;53.652;8.516;2023-04-19T02:28:37;103279.38;;;7.54;100.00
37878;BME280;23715;53.652;8.516;2023-04-19T02:33:37;103272.17;;;7.43;100.00
37878;BME280;23715;53.652;8.516;2023-04-19T02:38:38;103272.08;;;7.46;100.00
37878;BME280;23715;53.652;8.516;2023-04-19T02:43:38;103272.38;;;7.37;100.00
37878;BME280;23715;53.652;8.516;2023-04-19T02:48:38;103268.32;;;7.25;100.00
37878;BME280;23715;53.652;8.516;2023-04-19T02:53:39;103275.66;;;7.18;100.00
37878;BME280;23715;53.652;8.516;2023-04-19T02:58:39;103275.39;;;7.13;100.00
37878;BME280;23715;53.652;8.516;2023-04-19T03:03:39;103280.87;;;7.10;100.00
37878;BME280;23715;53.652;8.516;2023-04-19T03:08:40;103285.58;;;6.87;100.00
37878;BME280;23715;53.652;8.516;2023-04-19T03:13:40;103282.67;;;6.66;100.00
37878;BME280;23715;53.652;8.516;2023-04-19T03:18:41;103287.17;;;6.34;100.00
37878;BME280;23715;53.652;8.516;2023-04-19T03:23:41;103287.17;;;6.34;100.00
37878;BME280;23715;53.652;8.516;2023-04-19T03:28:42;103281.44;;;6.17;100.00
37878;BME280;23715;53.652;8.516;2023-04-19T03:33:56;103274.80;;;6.15;100.00
37878;BME280;23715;53.652;8.516;2023-04-19T03:38:58;103266.68;;;6.03;100.00
37878;BME280;23715;53.652;8.516;2023-04-19T03:43:59;103279.38;;;5.77;100.00
37878;BME280;23715;53.652;8.516;2023-04-19T03:48:59;103282.98;;;5.75;100.00
37878;BME280;23715;53.652;8.516;2023-04-19T03:53:59;103287.33;;;5.62;100.00
37878;BME280;23715;53.652;8.516;2023-04-19T03:59:00;103287.59;;;5.52;100.00
37878;BME280;23715;53.652;8.516;2023-04-19T04:04:01;103288.80;;;5.58;100.00
37878;BME280;23715;53.652;8.516;2023-04-19T04:09:01;103291.88;;;5.92;100.00
37878;BME280;23715;53.652;8.516;2023-04-19T04:14:03;103297.47;;;6.00;100.00
37878;BME280;23715;53.652;8.516;2023-04-19T04:19:05;103284.91;;;6.50;100.00
37878;BME280;23715;53.652;8.516;2023-04-19T04:24:07;103286.30;;;6.78;100.00
37878;BME280;23715;53.652;8.516;2023-04-19T04:29:09;103281.02;;;6.90;100.00
37878;BME280;23715;53.652;8.516;2023-04-19T04:34:11;103277.98;;;6.88;100.00
37878;BME280;23715;53.652;8.516;2023-04-19T04:39:14;103285.27;;;6.82;100.00
37878;BME280;23715;53.652;8.516;2023-04-19T04:44:15;103286.34;;;6.62;100.00
37878;BME280;23715;53.652;8.516;2023-04-19T04:49:16;103286.81;;;6.61;100.00
37878;BME280;23715;53.652;8.516;2023-04-19T04:54:22;103282.09;;;6.84;100.00
37878;BME280;23715;53.652;8.516;2023-04-19T04:59:19;103281.53;;;7.30;100.00
37878;BME280;23715;53.652;8.516;2023-04-19T05:04:20;103276.28;;;7.67;100.00
37878;BME280;23715;53.652;8.516;2023-04-19T05:09:21;103270.98;;;7.65;100.00
37878;BME280;23715;53.652;8.516;2023-04-19T05:14:23;103267.60;;;7.72;100.00
37878;BME280;23715;53.652;8.516;2023-04-19T05:19:24;103264.21;;;7.80;100.00
37878;BME280;23715;53.652;8.516;2023-04-19T05:24:26;103262.17;;;7.87;100.00
37878;BME280;23715;53.652;8.516;2023-04-19T05:29:27;103264.03;;;7.85;100.00
37878;BME280;23715;53.652;8.516;2023-04-19T05:34:28;103268.30;;;7.90;100.00
37878;BME280;23715;53.652;8.516;2023-04-19T05:39:29;103269.66;;;8.02;100.00
37878;BME280;23715;53.652;8.516;2023-04-19T05:44:30;103272.42;;;8.12;100.00
37878;BME280;23715;53.652;8.516;2023-04-19T05:49:30;103272.43;;;8.24;100.00
37878;BME280;23715;53.652;8.516;2023-04-19T05:54:37;103267.30;;;8.30;100.00
37878;BME280;23715;53.652;8.516;2023-04-19T05:59:37;103271.59;;;8.47;100.00
37878;BME280;23715;53.652;8.516;2023-04-19T06:04:38;103263.70;;;8.66;100.00
37878;BME280;23715;53.652;8.516;2023-04-19T06:09:39;103265.27;;;8.72;100.00
37878;BME280;23715;53.652;8.516;2023-04-19T06:14:39;103264.18;;;8.88;100.00
37878;BME280;23715;53.652;8.516;2023-04-19T06:19:40;103256.99;;;9.00;100.00
37878;BME280;23715;53.652;8.516;2023-04-19T06:24:40;103260.48;;;9.02;100.00
37878;BME280;23715;53.652;8.516;2023-04-19T06:29:40;103262.16;;;9.05;100.00
37878;BME280;23715;53.652;8.516;2023-04-19T06:34:41;103252.16;;;9.20;100.00
37878;BME280;23715;53.652;8.516;2023-04-19T06:39:41;103251.41;;;9.27;100.00
37878;BME280;23715;53.652;8.516;2023-04-19T06:44:42;103247.75;;;9.40;100.00
37878;BME280;23715;53.652;8.516;2023-04-19T06:49:42;103252.78;;;9.57;100.00
37878;BME280;23715;53.652;8.516;2023-04-19T06:54:47;103252.67;;;9.61;100.00
37878;BME280;23715;53.652;8.516;2023-04-19T06:59:47;103247.64;;;9.73;100.00
37878;BME280;23715;53.652;8.516;2023-04-19T07:04:47;103243.59;;;9.84;100.00
37878;BME280;23715;53.652;8.516;2023-04-19T07:09:48;103251.03;;;10.08;100.00
37878;BME280;23715;53.652;8.516;2023-04-19T07:14:49;103241.94;;;10.21;100.00
37878;BME280;23715;53.652;8.516;2023-04-19T07:19:51;103240.91;;;10.33;100.00
37878;BME280;23715;53.652;8.516;2023-04-19T07:24:52;103234.36;;;10.58;100.00
37878;BME280;23715;53.652;8.516;2023-04-19T07:29:53;103238.40;;;10.58;100.00
37878;BME280;23715;53.652;8.516;2023-04-19T07:34:53;103231.17;;;10.50;100.00
37878;BME280;23715;53.652;8.516;2023-04-19T07:39:53;103224.92;;;10.68;100.00
37878;BME280;23715;53.652;8.516;2023-04-19T07:44:53;103224.72;;;10.82;100.00
37878;BME280;23715;53.652;8.516;2023-04-19T07:49:54;103218.61;;;10.87;100.00
37878;BME280;23715;53.652;8.516;2023-04-19T07:54:55;103216.02;;;10.94;100.00
37878;BME280;23715;53.652;8.516;2023-04-19T07:59:55;103211.21;;;11.09;100.00
37878;BME280;23715;53.652;8.516;2023-04-19T08:04:59;103201.73;;;11.37;100.00
37878;BME280;23715;53.652;8.516;2023-04-19T08:10:00;103198.47;;;11.57;100.00
37878;BME280;23715;53.652;8.516;2023-04-19T08:15:00;103196.37;;;11.79;100.00
37878;BME280;23715;53.652;8.516;2023-04-19T08:20:01;103193.05;;;11.74;100.00
37878;BME280;23715;53.652;8.516;2023-04-19T08:25:02;103194.80;;;11.75;100.00
37878;BME280;23715;53.652;8.516;2023-04-19T08:30:06;103181.66;;;11.69;100.00
37878;BME280;23715;53.652;8.516;2023-04-19T08:35:06;103178.70;;;11.82;100.00
37878;BME280;23715;53.652;8.516;2023-04-19T08:40:07;103180.83;;;11.84;100.00
37878;BME280;23715;53.652;8.516;2023-04-19T08:45:11;103178.53;;;11.94;100.00
37878;BME280;23715;53.652;8.516;2023-04-19T08:50:14;103169.19;;;11.84;100.00
37878;BME280;23715;53.652;8.516;2023-04-19T08:55:15;103151.69;;;12.24;100.00
37878;BME280;23715;53.652;8.516;2023-04-19T09:00:16;103151.69;;;12.24;100.00
37878;BME280;23715;53.652;8.516;2023-04-19T09:05:19;103154.18;;;12.52;100.00
37878;BME280;23715;53.652;8.516;2023-04-19T09:10:20;103145.56;;;12.68;100.00
37878;BME280;23715;53.652;8.516;2023-04-19T09:15:33;103139.96;;;12.64;100.00
37878;BME280;23715;53.652;8.516;2023-04-19T09:20:38;103129.61;;;12.57;100.00
37878;BME280;23715;53.652;8.516;2023-04-19T09:25:30;103126.05;;;12.56;100.00
37878;BME280;23715;53.652;8.516;2023-04-19T09:30:30;103120.03;;;12.74;100.00
37878;BME280;23715;53.652;8.516;2023-04-19T09:40:40;103100.63;;;12.91;100.00
37878;BME280;23715;53.652;8.516;2023-04-19T09:45:44;103099.23;;;13.14;99.18
37878;BME280;23715;53.652;8.516;2023-04-19T09:55:54;103090.16;;;13.22;93.51
37878;BME280;23715;53.652;8.516;2023-04-19T10:00:55;103075.89;;;13.27;88.20
37878;BME280;23715;53.652;8.516;2023-04-19T10:05:57;103077.56;;;13.65;95.65
37878;BME280;23715;53.652;8.516;2023-04-19T10:11:00;103073.91;;;13.52;90.85
37878;BME280;23715;53.652;8.516;2023-04-19T10:16:00;103065.89;;;13.58;92.31
37878;BME280;23715;53.652;8.516;2023-04-19T10:21:04;103063.89;;;13.47;90.41
37878;BME280;23715;53.652;8.516;2023-04-19T10:26:04;103053.55;;;13.61;88.72
37878;BME280;23715;53.652;8.516;2023-04-19T10:31:05;103045.61;;;13.65;87.15
37878;BME280;23715;53.652;8.516;2023-04-19T10:36:10;103037.87;;;13.73;89.24
37878;BME280;23715;53.652;8.516;2023-04-19T10:41:12;103024.52;;;13.84;86.11
37878;BME280;23715;53.652;8.516;2023-04-19T10:51:37;103013.41;;;14.16;90.66
37878;BME280;23715;53.652;8.516;2023-04-19T10:56:56;103006.66;;;14.16;84.09
37878;BME280;23715;53.652;8.516;2023-04-19T11:02:00;103004.88;;;14.02;90.59
37878;BME280;23715;53.652;8.516;2023-04-19T11:07:04;102983.36;;;14.21;88.34
37878;BME280;23715;53.652;8.516;2023-04-19T11:12:14;102983.94;;;14.39;89.37
37878;BME280;23715;53.652;8.516;2023-04-19T11:17:16;102970.33;;;14.33;84.12
37878;BME280;23715;53.652;8.516;2023-04-19T11:22:16;102971.09;;;14.35;83.18
37878;BME280;23715;53.652;8.516;2023-04-19T11:27:17;102954.64;;;14.58;87.90
37878;BME280;23715;53.652;8.516;2023-04-19T11:32:21;102963.66;;;14.59;84.06
37878;BME280;23715;53.652;8.516;2023-04-19T11:37:20;102946.05;;;14.84;83.27
37878;BME280;23715;53.652;8.516;2023-04-19T11:42:21;102954.18;;;14.84;80.02
37878;BME280;23715;53.652;8.516;2023-04-19T11:47:21;102935.71;;;14.84;82.78
37878;BME280;23715;53.652;8.516;2023-04-19T11:52:22;102932.21;;;15.08;81.47
37878;BME280;23715;53.652;8.516;2023-04-19T11:57:27;102931.90;;;14.74;76.73
37878;BME280;23715;53.652;8.516;2023-04-19T12:02:28;102926.80;;;15.08;76.50
37878;BME280;23715;53.652;8.516;2023-04-19T12:07:28;102920.07;;;15.00;75.07
37878;BME280;23715;53.652;8.516;2023-04-19T12:12:31;102895.86;;;15.23;86.79
37878;BME280;23715;53.652;8.516;2023-04-19T12:17:32;102913.23;;;15.20;74.89
37878;BME280;23715;53.652;8.516;2023-04-19T12:22:32;102885.77;;;15.25;78.11
37878;BME280;23715;53.652;8.516;2023-04-19T12:27:32;102902.55;;;15.12;76.23
37878;BME280;23715;53.652;8.516;2023-04-19T12:32:32;102877.41;;;15.10;70.12
37878;BME280;23715;53.652;8.516;2023-04-19T12:37:33;102882.68;;;15.06;70.73
37878;BME280;23715;53.652;8.516;2023-04-19T12:42:33;102871.23;;;15.08;66.12
37878;BME280;23715;53.652;8.516;2023-04-19T12:47:34;102883.83;;;15.09;63.80
37878;BME280;23715;53.652;8.516;2023-04-19T12:52:34;102873.28;;;15.17;65.84
37878;BME280;23715;53.652;8.516;2023-04-19T12:57:34;102869.02;;;15.68;66.37
37878;BME280;23715;53.652;8.516;2023-04-19T13:02:34;102860.19;;;15.53;61.95
37878;BME280;23715;53.652;8.516;2023-04-19T13:07:34;102856.30;;;15.39;62.59
37878;BME280;23715;53.652;8.516;2023-04-19T13:12:34;102848.64;;;15.38;62.60
37878;BME280;23715;53.652;8.516;2023-04-19T13:17:36;102848.06;;;15.40;61.86
37878;BME280;23715;53.652;8.516;2023-04-19T13:22:36;102844.57;;;15.33;66.55
37878;BME280;23715;53.652;8.516;2023-04-19T13:27:37;102833.30;;;15.45;64.45
37878;BME280;23715;53.652;8.516;2023-04-19T13:32:38;102833.62;;;15.40;61.70
37878;BME280;23715;53.652;8.516;2023-04-19T13:37:39;102837.47;;;15.43;67.36
37878;BME280;23715;53.652;8.516;2023-04-19T13:42:41;102820.40;;;15.54;64.05
37878;BME280;23715;53.652;8.516;2023-04-19T13:47:41;102829.47;;;15.71;62.21
37878;BME280;23715;53.652;8.516;2023-04-19T13:52:41;102819.84;;;15.67;62.69
37878;BME280;23715;53.652;8.516;2023-04-19T13:57:41;102817.95;;;15.62;60.78
37878;BME280;23715;53.652;8.516;2023-04-19T14:02:48;102818.12;;;15.48;55.26
37878;BME280;23715;53.652;8.516;2023-04-19T14:07:51;102805.86;;;15.60;59.82
37878;BME280;23715;53.652;8.516;2023-04-19T14:12:51;102809.50;;;15.42;56.80
37878;BME280;23715;53.652;8.516;2023-04-19T14:17:51;102805.87;;;15.36;63.44
37878;BME280;23715;53.652;8.516;2023-04-19T14:22:52;102796.73;;;15.86;65.63
37878;BME280;23715;53.652;8.516;2023-04-19T14:27:56;102794.66;;;15.95;61.62
37878;BME280;23715;53.652;8.516;2023-04-19T14:32:56;102796.28;;;15.92;61.68
37878;BME280;23715;53.652;8.516;2023-04-19T14:38:02;102776.35;;;15.74;61.05
37878;BME280;23715;53.652;8.516;2023-04-19T14:42:58;102773.38;;;16.18;69.93
37878;BME280;23715;53.652;8.516;2023-04-19T14:47:59;102779.72;;;15.89;62.45
37878;BME280;23715;53.652;8.516;2023-04-19T14:52:59;102787.97;;;15.28;58.27
37878;BME280;23715;53.652;8.516;2023-04-19T14:57:59;102772.42;;;15.49;63.06
37878;BME280;23715;53.652;8.516;2023-04-19T15:02:59;102767.17;;;15.94;65.48
37878;BME280;23715;53.652;8.516;2023-04-19T15:08:00;102763.49;;;16.17;65.92
37878;BME280;23715;53.652;8.516;2023-04-19T15:13:00;102773.05;;;15.52;60.54
37878;BME280;23715;53.652;8.516;2023-04-19T15:18:02;102767.42;;;15.31;58.68
37878;BME280;23715;53.652;8.516;2023-04-19T15:23:04;102765.14;;;15.49;59.63
37878;BME280;23715;53.652;8.516;2023-04-19T15:28:04;102774.44;;;15.58;57.37
37878;BME280;23715;53.652;8.516;2023-04-19T15:33:04;102772.62;;;15.40;55.89
37878;BME280;23715;53.652;8.516;2023-04-19T15:38:05;102765.57;;;15.32;56.48
37878;BME280;23715;53.652;8.516;2023-04-19T15:43:05;102772.78;;;15.20;54.64
37878;BME280;23715;53.652;8.516;2023-04-19T15:48:06;102773.28;;;15.25;56.31
37878;BME280;23715;53.652;8.516;2023-04-19T15:53:08;102768.19;;;15.15;55.47
37878;BME280;23715;53.652;8.516;2023-04-19T15:58:08;102779.18;;;15.00;57.91
37878;BME280;23715;53.652;8.516;2023-04-19T16:03:09;102781.92;;;15.06;61.48
37878;BME280;23715;53.652;8.516;2023-04-19T16:08:11;102784.38;;;15.03;55.52
37878;BME280;23715;53.652;8.516;2023-04-19T16:13:14;102784.53;;;15.08;59.53
37878;BME280;23715;53.652;8.516;2023-04-19T16:18:14;102782.88;;;15.18;55.38
37878;BME280;23715;53.652;8.516;2023-04-19T16:23:15;102793.27;;;15.06;52.69
37878;BME280;23715;53.652;8.516;2023-04-19T16:28:16;102790.45;;;15.07;55.42
37878;BME280;23715;53.652;8.516;2023-04-19T16:33:17;102794.55;;;14.94;52.85
37878;BME280;23715;53.652;8.516;2023-04-19T16:38:18;102793.78;;;14.74;53.31
37878;BME280;23715;53.652;8.516;2023-04-19T16:43:18;102800.88;;;14.43;53.39
37878;BME280;23715;53.652;8.516;2023-04-19T16:48:18;102798.09;;;14.58;53.08
37878;BME280;23715;53.652;8.516;2023-04-19T16:53:19;102798.09;;;14.19;54.57
37878;BME280;23715;53.652;8.516;2023-04-19T16:58:19;102799.83;;;14.08;53.13
37878;BME280;23715;53.652;8.516;2023-04-19T17:03:19;102784.45;;;14.08;53.63
37878;BME280;23715;53.652;8.516;2023-04-19T17:08:20;102780.91;;;14.13;56.96
37878;BME280;23715;53.652;8.516;2023-04-19T17:13:20;102785.68;;;14.22;56.87
37878;BME280;23715;53.652;8.516;2023-04-19T17:18:21;102783.78;;;14.30;56.15
37878;BME280;23715;53.652;8.516;2023-04-19T17:23:22;102782.61;;;14.21;57.15
37878;BME280;23715;53.652;8.516;2023-04-19T17:28:22;102790.22;;;13.83;56.83
37878;BME280;23715;53.652;8.516;2023-04-19T17:33:22;102791.86;;;13.79;57.33
37878;BME280;23715;53.652;8.516;2023-04-19T17:38:22;102792.39;;;13.71;58.63
37878;BME280;23715;53.652;8.516;2023-04-19T17:43:23;102788.69;;;13.59;62.26
37878;BME280;23715;53.652;8.516;2023-04-19T17:48:28;102783.02;;;13.57;64.48
37878;BME280;23715;53.652;8.516;2023-04-19T17:53:35;102785.66;;;13.51;63.14
37878;BME280;23715;53.652;8.516;2023-04-19T17:58:36;102779.52;;;13.27;65.67
37878;BME280;23715;53.652;8.516;2023-04-19T18:03:38;102785.61;;;13.38;66.25
37878;BME280;23715;53.652;8.516;2023-04-19T18:08:40;102777.16;;;13.30;67.70
37878;BME280;23715;53.652;8.516;2023-04-19T18:13:46;102779.09;;;13.14;67.96
37878;BME280;23715;53.652;8.516;2023-04-19T18:18:47;102781.70;;;12.81;68.98
37878;BME280;23715;53.652;8.516;2023-04-19T18:23:47;102770.16;;;12.99;69.60
37878;BME280;23715;53.652;8.516;2023-04-19T18:28:50;102775.66;;;12.97;68.64
37878;BME280;23715;53.652;8.516;2023-04-19T18:33:50;102784.41;;;12.74;68.72
37878;BME280;23715;53.652;8.516;2023-04-19T18:38:50;102784.41;;;12.74;69.03
37878;BME280;23715;53.652;8.516;2023-04-19T18:43:51;102788.63;;;12.70;70.30
37878;BME280;23715;53.652;8.516;2023-04-19T18:48:55;102784.41;;;12.74;70.13
37878;BME280;23715;53.652;8.516;2023-04-19T18:53:55;102789.71;;;12.61;71.62
37878;BME280;23715;53.652;8.516;2023-04-19T18:58:56;102792.13;;;12.51;73.94
37878;BME280;23715;53.652;8.516;2023-04-19T19:03:58;102796.19;;;12.29;76.90
37878;BME280;23715;53.652;8.516;2023-04-19T19:08:59;102797.44;;;12.24;77.82
37878;BME280;23715;53.652;8.516;2023-04-19T19:13:59;102801.94;;;12.23;80.03
37878;BME280;23715;53.652;8.516;2023-04-19T19:18:59;102805.31;;;12.27;81.50
37878;BME280;23715;53.652;8.516;2023-04-19T19:23:59;102804.63;;;12.23;83.40
37878;BME280;23715;53.652;8.516;2023-04-19T19:28:59;102805.98;;;12.23;82.79
37878;BME280;23715;53.652;8.516;2023-04-19T19:34:00;102803.86;;;12.21;83.68
37878;BME280;23715;53.652;8.516;2023-04-19T19:39:00;102808.28;;;12.08;84.70
37878;BME280;23715;53.652;8.516;2023-04-19T19:44:00;102804.59;;;11.95;86.24
37878;BME280;23715;53.652;8.516;2023-04-19T19:49:01;102801.84;;;11.80;87.84
37878;BME280;23715;53.652;8.516;2023-04-19T19:54:01;102798.26;;;11.80;88.71
37878;BME280;23715;53.652;8.516;2023-04-19T19:59:03;102800.84;;;11.67;89.28
37878;BME280;23715;53.652;8.516;2023-04-19T20:04:03;102798.20;;;11.58;91.95
37878;BME280;23715;53.652;8.516;2023-04-19T20:09:05;102798.25;;;11.49;91.79
37878;BME280;23715;53.652;8.516;2023-04-19T20:14:08;102795.52;;;11.35;92.99
37878;BME280;23715;53.652;8.516;2023-04-19T20:19:08;102791.27;;;11.15;95.33
37878;BME280;23715;53.652;8.516;2023-04-19T20:24:09;102795.34;;;10.08;100.00
37878;BME280;23715;53.652;8.516;2023-04-19T20:29:11;102791.88;;;9.80;100.00
37878;BME280;23715;53.652;8.516;2023-04-19T20:34:12;102781.75;;;9.76;100.00
37878;BME280;23715;53.652;8.516;2023-04-19T20:39:12;102774.39;;;9.71;100.00
37878;BME280;23715;53.652;8.516;2023-04-19T20:44:13;102770.84;;;9.70;100.00
37878;BME280;23715;53.652;8.516;2023-04-19T20:49:15;102765.64;;;9.85;100.00
37878;BME280;23715;53.652;8.516;2023-04-19T20:54:16;102761.28;;;9.91;100.00
37878;BME280;23715;53.652;8.516;2023-04-19T20:59:16;102746.80;;;9.93;100.00
37878;BME280;23715;53.652;8.516;2023-04-19T21:04:17;102752.60;;;9.51;100.00
37878;BME280;23715;53.652;8.516;2023-04-19T21:09:17;102746.73;;;9.43;100.00
37878;BME280;23715;53.652;8.516;2023-04-19T21:14:17;102737.34;;;9.51;100.00
37878;BME280;23715;53.652;8.516;2023-04-19T21:19:18;102735.28;;;9.65;100.00
37878;BME280;23715;53.652;8.516;2023-04-19T21:24:18;102733.47;;;9.74;100.00
37878;BME280;23715;53.652;8.516;2023-04-19T21:29:18;102724.81;;;10.03;100.00
37878;BME280;23715;53.652;8.516;2023-04-19T21:34:18;102733.24;;;9.79;100.00
37878;BME280;23715;53.652;8.516;2023-04-19T21:39:19;102742.55;;;9.98;100.00
37878;BME280;23715;53.652;8.516;2023-04-19T21:44:19;102737.83;;;10.19;100.00
37878;BME280;23715;53.652;8.516;2023-04-19T21:49:19;102737.36;;;10.11;100.00
37878;BME280;23715;53.652;8.516;2023-04-19T21:54:19;102732.05;;;10.18;100.00
37878;BME280;23715;53.652;8.516;2023-04-19T21:59:19;102729.14;;;10.05;100.00
37878;BME280;23715;53.652;8.516;2023-04-19T22:04:19;102723.84;;;9.79;100.00
37878;BME280;23715;53.652;8.516;2023-04-19T22:09:20;102706.12;;;9.88;100.00
37878;BME280;23715;53.652;8.516;2023-04-19T22:14:20;102706.12;;;10.17;100.00
37878;BME280;23715;53.652;8.516;2023-04-19T22:19:23;102717.29;;;10.43;100.00
37878;BME280;23715;53.652;8.516;2023-04-19T22:24:23;102697.39;;;10.54;100.00
37878;BME280;23715;53.652;8.516;2023-04-19T22:29:24;102683.06;;;10.69;100.00
37878;BME280;23715;53.652;8.516;2023-04-19T22:34:24;102684.16;;;10.74;100.00
37878;BME280;23715;53.652;8.516;2023-04-19T22:39:24;102683.27;;;10.73;100.00
37878;BME280;23715;53.652;8.516;2023-04-19T22:44:25;102665.44;;;10.64;100.00
37878;BME280;23715;53.652;8.516;2023-04-19T22:49:24;102657.34;;;10.41;100.00
37878;BME280;23715;53.652;8.516;2023-04-19T22:54:24;102658.89;;;10.20;100.00
37878;BME280;23715;53.652;8.516;2023-04-19T22:59:25;102650.44;;;9.70;100.00
37878;BME280;23715;53.652;8.516;2023-04-19T23:04:25;102650.06;;;9.51;100.00
37878;BME280;23715;53.652;8.516;2023-04-19T23:09:25;102636.52;;;9.62;100.00
37878;BME280;23715;53.652;8.516;2023-04-19T23:14:27;102639.87;;;9.58;100.00
37878;BME280;23715;53.652;8.516;2023-04-19T23:19:28;102636.73;;;9.41;100.00
37878;BME280;23715;53.652;8.516;2023-04-19T23:24:28;102625.05;;;9.25;100.00
37878;BME280;23715;53.652;8.516;2023-04-19T23:29:29;102614.78;;;9.15;100.00
37878;BME280;23715;53.652;8.516;2023-04-19T23:34:30;102612.41;;;9.27;100.00
37878;BME280;23715;53.652;8.516;2023-04-19T23:39:29;102604.05;;;9.15;100.00
37878;BME280;23715;53.652;8.516;2023-04-19T23:44:30;102598.98;;;8.83;100.00
37878;BME280;23715;53.652;8.516;2023-04-19T23:49:31;102591.19;;;8.96;100.00
37878;BME280;23715;53.652;8.516;2023-04-19T23:54:31;102583.91;;;9.07;100.00
37878;BME280;23715;53.652;8.516;2023-04-19T23:59:31;102578.52;;;9.42;100.00
